Time;durP1;ratioP1;P1;durP2;ratioP2;P2;SDS_P1;SDS_P2;PMS_P1;PMS_P2;Temp;Humidity;BMP_temperature;BMP_pressure;BME280_temperature;BME280_humidity;BME280_pressure;Samples;Min_cycle;Max_cycle;Signal;HPM_P1;HPM_P2
2021/04/10 00:01:37;;;;;;;15.95;11.60;;;10.90;99.90;;;;;;5064954;28;20033;-69
2021/04/10 00:04:06;;;;;;;16.85;12.00;;;10.90;99.90;;;;;;5066293;28;20020;-68
2021/04/10 00:06:31;;;;;;;27.70;13.98;;;10.90;99.90;;;;;;5061592;28;20028;-69
2021/04/10 00:08:58;;;;;;;18.70;12.80;;;10.90;99.90;;;;;;5065487;28;20028;-69
2021/04/10 00:11:24;;;;;;;18.90;12.93;;;10.90;99.90;;;;;;5067852;28;20025;-68
2021/04/10 00:13:50;;;;;;;15.35;11.00;;;10.90;99.90;;;;;;5072968;28;20017;-68
2021/04/10 00:16:16;;;;;;;16.80;11.98;;;10.90;99.90;;;;;;5069536;28;20028;-68
2021/04/10 00:18:45;;;;;;;15.15;11.05;;;10.90;99.90;;;;;;5065155;28;20074;-69
2021/04/10 00:21:11;;;;;;;19.48;12.63;;;10.90;99.90;;;;;;5063661;28;20024;-68
2021/04/10 00:23:43;;;;;;;18.13;12.20;;;10.90;99.90;;;;;;5063565;28;20033;-68
2021/04/10 00:26:13;;;;;;;16.40;11.55;;;11.00;99.90;;;;;;5069668;28;20040;-68
2021/04/10 00:28:39;;;;;;;18.23;12.35;;;10.90;99.90;;;;;;5066590;28;20029;-68
2021/04/10 00:31:08;;;;;;;17.75;12.07;;;10.80;99.90;;;;;;5070874;28;20024;-69
2021/04/10 00:33:38;;;;;;;20.88;13.55;;;10.80;99.90;;;;;;5062781;28;20029;-68
2021/04/10 00:36:05;;;;;;;16.75;11.68;;;10.80;99.90;;;;;;5061186;28;20112;-68
2021/04/10 00:38:31;;;;;;;14.50;10.98;;;10.80;99.90;;;;;;5060370;28;20063;-68
2021/04/10 00:40:58;;;;;;;15.00;11.27;;;10.90;99.90;;;;;;5065061;28;20115;-68
2021/04/10 00:43:25;;;;;;;14.57;11.43;;;10.80;99.90;;;;;;5059736;28;20527;-68
2021/04/10 00:45:51;;;;;;;17.15;11.52;;;10.80;99.90;;;;;;5063843;28;20497;-68
2021/04/10 00:48:17;;;;;;;16.05;10.82;;;10.90;99.90;;;;;;5061986;28;20029;-68
2021/04/10 00:50:43;;;;;;;14.95;11.30;;;10.80;99.90;;;;;;5062061;28;20522;-69
2021/04/10 00:53:08;;;;;;;21.42;12.35;;;10.80;99.90;;;;;;5073059;28;20020;-69
2021/04/10 00:55:35;;;;;;;19.52;12.85;;;10.90;99.90;;;;;;5064009;28;20036;-68
2021/04/10 00:58:01;;;;;;;18.80;13.52;;;10.90;99.90;;;;;;5065893;28;20482;-68
2021/04/10 01:00:27;;;;;;;19.25;12.35;;;10.90;99.90;;;;;;5065718;28;20484;-68
2021/04/10 01:02:53;;;;;;;17.35;13.05;;;10.90;99.90;;;;;;5067763;28;20070;-68
2021/04/10 01:05:18;;;;;;;17.33;12.18;;;10.90;99.90;;;;;;5064404;28;20064;-69
2021/04/10 01:07:44;;;;;;;18.73;13.52;;;10.80;99.90;;;;;;5067444;28;20481;-68
2021/04/10 01:10:11;;;;;;;19.90;12.45;;;10.80;99.90;;;;;;5061194;28;20032;-69
2021/04/10 01:12:56;;;;;;;19.38;12.55;;;10.70;99.90;;;;;;5071311;28;20468;-68
2021/04/10 01:15:36;;;;;;;13.80;11.50;;;10.70;99.90;;;;;;5071147;28;20408;-68
2021/04/10 01:18:10;;;;;;;14.90;11.75;;;10.70;99.90;;;;;;5087636;28;20124;-69
2021/04/10 01:20:53;;;;;;;17.90;12.43;;;10.60;99.90;;;;;;5070785;28;20029;-68
2021/04/10 01:23:32;;;;;;;21.88;12.45;;;10.60;99.90;;;;;;5067792;28;20469;-68
2021/04/10 01:26:00;;;;;;;18.58;12.48;;;10.50;99.90;;;;;;5071040;28;20045;-68
2021/04/10 01:28:44;;;;;;;21.55;13.23;;;10.60;99.90;;;;;;5076577;28;20052;-68
2021/04/10 01:31:14;;;;;;;15.95;12.85;;;10.60;99.90;;;;;;5080072;28;20032;-68
2021/04/10 01:33:46;;;;;;;18.20;13.48;;;10.60;99.90;;;;;;5081127;28;20537;-69
2021/04/10 01:36:13;;;;;;;20.63;12.95;;;10.50;99.90;;;;;;5087692;28;20095;-68
2021/04/10 01:38:43;;;;;;;19.50;13.63;;;10.50;99.90;;;;;;5071868;28;20043;-68
2021/04/10 01:41:10;;;;;;;20.27;13.50;;;10.50;99.90;;;;;;5071297;28;20075;-68
2021/04/10 01:43:37;;;;;;;26.77;13.45;;;10.50;99.90;;;;;;5073762;28;20477;-69
2021/04/10 01:46:04;;;;;;;23.10;14.02;;;10.40;99.90;;;;;;5075742;28;20035;-68
2021/04/10 01:48:31;;;;;;;24.45;13.77;;;10.50;99.90;;;;;;5068936;28;20150;-69
2021/04/10 01:51:00;;;;;;;18.77;12.73;;;10.50;99.90;;;;;;5075407;28;20028;-68
2021/04/10 01:53:26;;;;;;;27.33;15.05;;;10.50;99.90;;;;;;5082939;28;20032;-69
2021/04/10 01:55:53;;;;;;;23.73;13.50;;;10.50;99.90;;;;;;5079492;28;20033;-68
2021/04/10 01:58:19;;;;;;;24.98;14.32;;;10.50;99.90;;;;;;5070715;28;20029;-69
2021/04/10 02:00:46;;;;;;;20.45;13.35;;;10.50;99.90;;;;;;5079041;28;20390;-68
2021/04/10 02:03:18;;;;;;;19.98;14.25;;;10.40;99.90;;;;;;5073961;28;20021;-68
2021/04/10 02:05:44;;;;;;;23.05;14.93;;;10.50;99.90;;;;;;5071823;28;20044;-68
2021/04/10 02:08:12;;;;;;;28.88;15.40;;;10.50;99.90;;;;;;5073031;28;20025;-68
2021/04/10 02:10:39;;;;;;;28.35;17.55;;;10.40;99.90;;;;;;5076356;28;20040;-68
2021/04/10 02:13:07;;;;;;;26.98;17.10;;;10.40;99.90;;;;;;5075054;28;20114;-68
2021/04/10 02:15:33;;;;;;;32.85;18.02;;;10.30;99.90;;;;;;5084500;28;20075;-68
2021/04/10 02:17:59;;;;;;;27.20;16.80;;;10.40;99.90;;;;;;5082672;28;20115;-68
2021/04/10 02:20:25;;;;;;;26.15;17.67;;;10.30;99.90;;;;;;5080800;28;20032;-68
2021/04/10 02:22:53;;;;;;;29.23;17.27;;;10.30;99.90;;;;;;5079220;28;20043;-68
2021/04/10 02:25:20;;;;;;;31.55;18.35;;;10.30;99.90;;;;;;5083369;28;20067;-68
2021/04/10 02:27:47;;;;;;;32.85;17.58;;;10.30;99.90;;;;;;5068575;28;20024;-68
2021/04/10 02:30:14;;;;;;;33.20;20.10;;;10.30;99.90;;;;;;5075331;28;20024;-68
2021/04/10 02:32:52;;;;;;;36.75;19.25;;;10.20;99.90;;;;;;5069426;28;20033;-68
2021/04/10 02:35:33;;;;;;;30.98;19.90;;;10.20;99.90;;;;;;5077004;28;20025;-68
2021/04/10 02:38:00;;;;;;;34.92;22.02;;;10.10;99.90;;;;;;5068221;28;20500;-68
2021/04/10 02:40:30;;;;;;;40.70;21.05;;;10.20;99.90;;;;;;5079596;28;20032;-68
2021/04/10 02:42:58;;;;;;;37.03;21.95;;;10.10;99.90;;;;;;5083645;28;20024;-68
2021/04/10 02:45:28;;;;;;;36.65;21.00;;;10.10;99.90;;;;;;5079267;28;20036;-68
2021/04/10 02:48:04;;;;;;;35.38;20.63;;;10.10;99.90;;;;;;5071634;28;20409;-68
2021/04/10 02:50:30;;;;;;;30.98;20.20;;;10.10;99.90;;;;;;5065096;28;20024;-68
2021/04/10 02:52:57;;;;;;;33.90;21.33;;;10.10;99.90;;;;;;5079840;28;20032;-68
2021/04/10 02:55:28;;;;;;;32.55;20.77;;;10.10;99.90;;;;;;5078422;28;20032;-68
2021/04/10 02:57:58;;;;;;;37.15;22.63;;;10.10;99.90;;;;;;5077451;28;20051;-68
2021/04/10 03:00:25;;;;;;;38.08;21.48;;;10.10;99.90;;;;;;5080458;28;20073;-68
2021/04/10 03:02:51;;;;;;;39.80;21.20;;;10.10;99.90;;;;;;5066419;28;20032;-69
2021/04/10 03:05:17;;;;;;;38.67;24.15;;;10.10;99.90;;;;;;5065635;28;20029;-68
2021/04/10 03:07:49;;;;;;;36.78;22.60;;;10.00;99.90;;;;;;5070157;28;20029;-68
2021/04/10 03:10:18;;;;;;;37.95;21.40;;;10.00;99.90;;;;;;5071575;28;20036;-68
2021/04/10 03:12:44;;;;;;;39.88;23.20;;;10.00;99.90;;;;;;5069709;28;20938;-68
2021/04/10 03:15:18;;;;;;;35.97;21.65;;;10.00;99.90;;;;;;5070939;28;20024;-68
2021/04/10 03:17:44;;;;;;;41.80;22.45;;;9.90;99.90;;;;;;5065645;28;20036;-68
2021/04/10 03:20:14;;;;;;;42.90;22.75;;;9.90;99.90;;;;;;5059789;28;20035;-68
2021/04/10 03:22:45;;;;;;;35.72;22.40;;;9.90;99.90;;;;;;5065402;28;20146;-68
2021/04/10 03:25:14;;;;;;;40.33;23.60;;;9.90;99.90;;;;;;5071643;28;20051;-69
2021/04/10 03:27:41;;;;;;;40.72;22.42;;;9.90;99.90;;;;;;5063991;28;20151;-68
2021/04/10 03:30:09;;;;;;;40.55;21.55;;;10.00;99.90;;;;;;5071285;28;20503;-68
2021/04/10 03:32:36;;;;;;;41.85;21.50;;;10.00;99.90;;;;;;5065280;28;20024;-68
2021/04/10 03:35:02;;;;;;;37.92;21.15;;;10.00;99.90;;;;;;5066611;28;20025;-68
2021/04/10 03:37:29;;;;;;;34.28;20.50;;;10.00;99.90;;;;;;5063908;28;20389;-68
2021/04/10 03:39:56;;;;;;;40.50;22.95;;;9.90;99.90;;;;;;5067546;28;20431;-68
2021/04/10 03:42:34;;;;;;;38.45;23.70;;;9.80;99.90;;;;;;5061723;28;20024;-68
2021/04/10 03:45:00;;;;;;;34.33;21.70;;;9.80;99.90;;;;;;5064914;28;20033;-68
2021/04/10 03:47:25;;;;;;;38.35;22.27;;;9.80;99.90;;;;;;5070376;28;20037;-68
2021/04/10 03:49:51;;;;;;;41.22;23.75;;;9.70;99.90;;;;;;5066792;28;20029;-68
2021/04/10 03:52:17;;;;;;;40.50;21.67;;;9.80;99.90;;;;;;5071954;28;20495;-68
2021/04/10 03:54:42;;;;;;;33.60;21.63;;;9.50;99.90;;;;;;5068853;28;20103;-68
2021/04/10 03:57:08;;;;;;;38.30;21.95;;;9.50;99.90;;;;;;5067539;28;20042;-68
2021/04/10 03:59:34;;;;;;;35.60;21.67;;;9.50;99.90;;;;;;5062924;28;20546;-68
2021/04/10 04:01:59;;;;;;;36.47;19.58;;;9.60;99.90;;;;;;5064391;28;20025;-68
2021/04/10 04:04:25;;;;;;;36.22;20.08;;;9.50;99.90;;;;;;5065487;28;20017;-68
2021/04/10 04:06:50;;;;;;;39.30;21.42;;;9.50;99.90;;;;;;5065422;28;20036;-68
2021/04/10 04:09:16;;;;;;;35.47;20.08;;;9.50;99.90;;;;;;5065641;28;20028;-68
2021/04/10 04:11:42;;;;;;;31.20;19.80;;;9.50;99.90;;;;;;5068527;28;20154;-69
2021/04/10 04:14:07;;;;;;;31.83;19.95;;;9.50;99.90;;;;;;5068924;28;20040;-68
2021/04/10 04:16:33;;;;;;;38.67;21.13;;;9.50;99.90;;;;;;5061432;28;20042;-68
2021/04/10 04:18:58;;;;;;;38.85;19.88;;;9.50;99.90;;;;;;5068899;28;20028;-68
2021/04/10 04:21:24;;;;;;;41.65;20.92;;;9.50;99.90;;;;;;5068053;28;20089;-68
2021/04/10 04:23:49;;;;;;;31.60;19.42;;;9.50;99.90;;;;;;5066883;28;20056;-68
2021/04/10 04:26:15;;;;;;;37.40;19.80;;;9.60;99.90;;;;;;5062351;28;20048;-68
2021/04/10 04:28:41;;;;;;;39.58;20.30;;;9.60;99.90;;;;;;5067915;28;20016;-68
2021/04/10 04:31:06;;;;;;;37.03;19.58;;;9.60;99.90;;;;;;5068087;28;20033;-68
2021/04/10 04:33:32;;;;;;;38.17;21.17;;;9.60;99.90;;;;;;5065812;28;20022;-68
2021/04/10 04:35:58;;;;;;;36.58;21.10;;;9.50;99.90;;;;;;5059932;28;20032;-68
2021/04/10 04:38:23;;;;;;;38.42;19.50;;;9.40;99.90;;;;;;5064243;28;20031;-68
2021/04/10 04:40:49;;;;;;;42.90;20.45;;;9.50;99.90;;;;;;5064190;28;20028;-68
2021/04/10 04:43:14;;;;;;;40.55;20.38;;;9.30;99.90;;;;;;5064550;28;20025;-68
2021/04/10 04:45:40;;;;;;;34.25;18.83;;;9.40;99.90;;;;;;5067453;28;20390;-68
2021/04/10 04:48:06;;;;;;;37.88;19.00;;;9.40;99.90;;;;;;5063059;28;20066;-68
2021/04/10 04:50:32;;;;;;;36.17;20.73;;;9.50;99.90;;;;;;5068734;28;20048;-68
2021/04/10 04:52:57;;;;;;;40.22;20.00;;;9.50;99.90;;;;;;5062207;28;20059;-68
2021/04/10 04:55:23;;;;;;;32.03;19.60;;;9.50;99.90;;;;;;5069194;28;20044;-68
2021/04/10 04:57:48;;;;;;;42.08;21.17;;;9.60;99.90;;;;;;5068381;28;20056;-68
2021/04/10 05:00:15;;;;;;;36.08;17.92;;;9.50;99.90;;;;;;5073093;28;20029;-69
2021/04/10 05:02:41;;;;;;;32.33;18.67;;;9.50;99.90;;;;;;5074722;28;20029;-69
2021/04/10 05:05:07;;;;;;;33.55;17.00;;;9.50;99.90;;;;;;5070721;28;20093;-68
2021/04/10 05:07:33;;;;;;;39.65;18.25;;;9.40;99.90;;;;;;5073898;28;20024;-68
2021/04/10 05:09:58;;;;;;;30.33;16.27;;;9.40;99.90;;;;;;5069402;28;20028;-68
2021/04/10 05:12:24;;;;;;;38.08;16.98;;;9.20;99.90;;;;;;5073450;28;20054;-68
2021/04/10 05:14:50;;;;;;;31.58;15.27;;;9.00;99.90;;;;;;5067388;28;20029;-68
2021/04/10 05:17:15;;;;;;;30.05;15.13;;;9.10;99.90;;;;;;5071636;28;20039;-68
2021/04/10 05:19:41;;;;;;;29.27;15.43;;;9.20;99.90;;;;;;5070787;28;20036;-69
2021/04/10 05:22:06;;;;;;;37.20;17.48;;;9.20;99.90;;;;;;5066936;28;20036;-69
2021/04/10 05:24:32;;;;;;;35.80;16.70;;;9.10;99.90;;;;;;5072074;28;20019;-68
2021/04/10 05:26:57;;;;;;;40.75;16.13;;;9.10;99.90;;;;;;5069450;28;20037;-68
2021/04/10 05:29:23;;;;;;;35.97;15.32;;;9.20;99.90;;;;;;5067728;28;20090;-69
2021/04/10 05:31:49;;;;;;;34.40;17.63;;;9.30;99.90;;;;;;5066194;28;20025;-68
2021/04/10 05:34:14;;;;;;;26.98;15.63;;;9.10;99.90;;;;;;5070028;28;20025;-69
2021/04/10 05:36:40;;;;;;;32.75;15.68;;;9.20;99.90;;;;;;5072333;28;20493;-68
2021/04/10 05:39:06;;;;;;;32.63;16.80;;;9.20;99.90;;;;;;5073762;28;20079;-68
2021/04/10 05:41:32;;;;;;;33.97;17.05;;;9.20;99.90;;;;;;5070548;28;20089;-68
2021/04/10 05:43:57;;;;;;;34.10;16.40;;;9.20;99.90;;;;;;5068371;28;20127;-68
2021/04/10 05:46:23;;;;;;;32.67;14.80;;;9.30;99.90;;;;;;5067683;28;20039;-68
2021/04/10 05:48:49;;;;;;;41.05;16.95;;;9.30;99.90;;;;;;5075206;28;20028;-68
2021/04/10 05:51:14;;;;;;;34.88;16.45;;;9.30;99.90;;;;;;5071728;28;20086;-68
2021/04/10 05:53:43;;;;;;;35.30;15.93;;;9.30;99.90;;;;;;5064266;28;20020;-68
2021/04/10 05:56:09;;;;;;;34.45;16.58;;;9.30;99.90;;;;;;5068917;28;20024;-68
2021/04/10 05:58:34;;;;;;;33.97;15.68;;;9.40;99.90;;;;;;5075979;28;20384;-68
2021/04/10 06:01:00;;;;;;;34.92;16.25;;;9.40;99.90;;;;;;5073219;28;20017;-68
2021/04/10 06:03:26;;;;;;;30.13;14.93;;;9.20;99.90;;;;;;5083886;28;20065;-68
2021/04/10 06:05:52;;;;;;;36.65;15.50;;;9.30;99.90;;;;;;5077329;28;20498;-68
2021/04/10 06:08:17;;;;;;;31.95;15.32;;;9.20;99.90;;;;;;5075449;28;20020;-68
2021/04/10 06:10:43;;;;;;;27.30;15.70;;;9.20;99.90;;;;;;5065920;28;20048;-68
2021/04/10 06:13:09;;;;;;;29.23;15.32;;;9.30;99.90;;;;;;5071800;28;20105;-68
2021/04/10 06:15:35;;;;;;;30.13;15.68;;;9.30;99.90;;;;;;5072178;28;20028;-68
2021/04/10 06:18:01;;;;;;;40.33;17.65;;;9.40;99.90;;;;;;5068020;28;20031;-68
2021/04/10 06:20:26;;;;;;;29.58;13.98;;;9.30;99.90;;;;;;5074047;28;20028;-70
2021/04/10 06:22:52;;;;;;;33.67;15.32;;;9.40;99.90;;;;;;5065902;28;20040;-68
2021/04/10 06:25:18;;;;;;;35.38;16.92;;;9.40;99.90;;;;;;5074825;28;20416;-68
2021/04/10 06:27:43;;;;;;;34.38;16.40;;;9.40;99.90;;;;;;5079319;28;20033;-68
2021/04/10 06:30:09;;;;;;;33.30;16.23;;;9.30;99.90;;;;;;5072548;28;20017;-68
2021/04/10 06:32:35;;;;;;;33.17;16.20;;;9.30;99.90;;;;;;5072634;28;20489;-69
2021/04/10 06:35:02;;;;;;;31.23;16.15;;;9.30;99.90;;;;;;5067420;28;20025;-68
2021/04/10 06:37:28;;;;;;;42.10;17.45;;;9.40;99.90;;;;;;5073566;28;20556;-68
2021/04/10 06:39:53;;;;;;;40.40;17.48;;;9.40;99.90;;;;;;5072581;28;20069;-68
2021/04/10 06:42:20;;;;;;;34.75;16.65;;;9.30;99.90;;;;;;5072144;28;20008;-67
2021/04/10 06:44:46;;;;;;;36.28;17.85;;;9.30;99.90;;;;;;5075517;28;20025;-68
2021/04/10 06:47:12;;;;;;;40.10;19.20;;;9.30;99.90;;;;;;5068571;28;20029;-68
2021/04/10 06:49:38;;;;;;;39.22;18.55;;;9.20;99.90;;;;;;5060436;28;20477;-68
2021/04/10 06:52:06;;;;;;;32.53;17.50;;;9.30;99.90;;;;;;5070579;28;20089;-68
2021/04/10 06:54:34;;;;;;;35.53;17.45;;;9.30;99.90;;;;;;5062242;28;20473;-68
2021/04/10 06:57:09;;;;;;;39.35;19.50;;;9.40;99.90;;;;;;5072899;28;20082;-68
2021/04/10 06:59:59;;;;;;;40.60;19.67;;;9.40;99.90;;;;;;5069574;28;20029;-69
2021/04/10 07:02:27;;;;;;;33.90;19.67;;;9.30;99.90;;;;;;5069349;28;20044;-68
2021/04/10 07:04:55;;;;;;;43.03;19.73;;;9.40;99.90;;;;;;5072554;28;20491;-69
2021/04/10 07:07:23;;;;;;;34.53;17.35;;;9.50;99.90;;;;;;5060515;28;20036;-68
2021/04/10 07:09:48;;;;;;;38.63;19.65;;;9.50;99.90;;;;;;5074253;28;20415;-69
2021/04/10 07:12:14;;;;;;;35.75;18.67;;;9.30;99.90;;;;;;5072593;28;20040;-68
2021/04/10 07:14:40;;;;;;;40.20;19.23;;;9.30;99.90;;;;;;5067168;28;20025;-69
2021/04/10 07:17:06;;;;;;;38.63;19.90;;;9.40;99.90;;;;;;5077016;28;20107;-68
2021/04/10 07:19:31;;;;;;;41.47;19.02;;;9.40;99.90;;;;;;5066431;28;20025;-69
2021/04/10 07:22:09;;;;;;;48.28;19.23;;;9.40;99.90;;;;;;5069609;28;20031;-68
2021/04/10 07:24:39;;;;;;;39.70;19.92;;;9.30;99.90;;;;;;5061292;28;20036;-69
2021/04/10 07:27:07;;;;;;;36.58;18.50;;;9.30;99.90;;;;;;5066710;28;20036;-69
2021/04/10 07:29:35;;;;;;;44.03;20.42;;;9.30;99.90;;;;;;5076855;28;20036;-69
2021/04/10 07:32:22;;;;;;;39.42;21.55;;;9.40;99.90;;;;;;5069998;28;20037;-69
2021/04/10 07:34:48;;;;;;;46.92;20.27;;;9.50;99.90;;;;;;5068234;28;20032;-69
2021/04/10 07:37:33;;;;;;;40.25;20.33;;;9.50;99.90;;;;;;5069211;28;20113;-69
2021/04/10 07:40:01;;;;;;;39.50;22.25;;;9.50;99.90;;;;;;5065051;28;20577;-70
2021/04/10 07:42:28;;;;;;;43.08;23.27;;;9.30;99.90;;;;;;5063732;28;20025;-70
2021/04/10 07:44:54;;;;;;;48.67;22.20;;;9.40;99.90;;;;;;5065563;28;20656;-70
2021/04/10 07:47:36;;;;;;;45.80;24.85;;;9.50;99.90;;;;;;5064509;28;20029;-70
2021/04/10 07:50:12;;;;;;;47.50;23.75;;;9.50;99.90;;;;;;5062726;28;20056;-70
2021/04/10 07:52:38;;;;;;;45.50;22.80;;;9.50;99.90;;;;;;5062381;28;20035;-70
2021/04/10 07:55:04;;;;;;;48.20;23.02;;;9.50;99.90;;;;;;5064498;28;20103;-70
2021/04/10 07:57:30;;;;;;;39.05;22.80;;;9.50;99.90;;;;;;5063938;28;20021;-70
2021/04/10 07:59:56;;;;;;;47.40;24.20;;;9.60;99.90;;;;;;5069273;28;20354;-70
2021/04/10 08:02:23;;;;;;;47.03;22.73;;;9.50;99.90;;;;;;5071121;28;20025;-70
2021/04/10 08:04:58;;;;;;;45.75;23.83;;;9.50;99.90;;;;;;5064104;28;20021;-70
2021/04/10 08:07:31;;;;;;;43.85;24.50;;;9.50;99.90;;;;;;5061308;28;20040;-70
2021/04/10 08:10:02;;;;;;;48.58;24.20;;;9.50;99.90;;;;;;5065805;28;20105;-70
2021/04/10 08:12:31;;;;;;;43.60;24.13;;;9.40;99.90;;;;;;5064667;28;20034;-70
2021/04/10 08:14:57;;;;;;;37.55;22.67;;;9.40;99.90;;;;;;5068077;28;20025;-70
2021/04/10 08:17:39;;;;;;;41.10;23.77;;;9.50;99.90;;;;;;5065024;28;20086;-70
2021/04/10 08:20:21;;;;;;;42.20;22.45;;;9.50;99.90;;;;;;5074514;28;20759;-70
2021/04/10 08:22:47;;;;;;;43.88;23.02;;;9.60;99.90;;;;;;5070397;28;20028;-70
2021/04/10 08:25:27;;;;;;;46.63;24.13;;;9.70;99.90;;;;;;5062229;28;20474;-70
2021/04/10 08:27:53;;;;;;;45.33;22.27;;;9.80;99.90;;;;;;5070841;28;20107;-70
2021/04/10 08:30:20;;;;;;;44.53;24.20;;;9.80;99.90;;;;;;5071475;28;20020;-70
2021/04/10 08:32:45;;;;;;;44.63;22.40;;;9.80;99.90;;;;;;5065447;28;20020;-71
2021/04/10 08:35:12;;;;;;;40.95;21.80;;;9.80;99.90;;;;;;5062962;28;20496;-71
2021/04/10 08:37:40;;;;;;;38.00;21.98;;;9.80;99.90;;;;;;5057912;28;20024;-71
2021/04/10 08:40:07;;;;;;;45.70;23.52;;;9.60;99.90;;;;;;5064418;28;20046;-71
2021/04/10 08:42:35;;;;;;;42.13;22.10;;;9.50;99.90;;;;;;5072655;28;20016;-71
2021/04/10 08:45:01;;;;;;;40.58;21.73;;;9.50;99.90;;;;;;5060916;28;20029;-71
2021/04/10 08:47:28;;;;;;;35.67;22.05;;;9.50;99.90;;;;;;5066537;28;20029;-71
2021/04/10 08:49:55;;;;;;;44.63;22.67;;;9.50;99.90;;;;;;5068915;28;20431;-71
2021/04/10 08:52:34;;;;;;;41.30;20.83;;;9.60;99.90;;;;;;5071984;28;20552;-71
2021/04/10 08:55:00;;;;;;;40.28;23.15;;;9.60;99.90;;;;;;5057214;28;20032;-71
2021/04/10 08:57:41;;;;;;;42.72;22.67;;;9.60;99.90;;;;;;5066208;28;20025;-71
2021/04/10 09:00:17;;;;;;;41.30;23.08;;;9.60;99.90;;;;;;5059893;28;20039;-71
2021/04/10 09:02:55;;;;;;;43.08;22.10;;;9.50;99.90;;;;;;5069195;28;20020;-71
2021/04/10 09:05:21;;;;;;;42.03;22.48;;;9.50;99.90;;;;;;5059750;28;20031;-71
2021/04/10 09:07:49;;;;;;;40.83;23.00;;;9.40;99.90;;;;;;5060126;28;20024;-71
2021/04/10 09:10:24;;;;;;;37.88;21.98;;;9.30;99.90;;;;;;5063416;28;20447;-71
2021/04/10 09:13:10;;;;;;;50.63;24.98;;;9.30;99.90;;;;;;5058404;28;20025;-72
2021/04/10 09:15:36;;;;;;;44.45;22.90;;;9.30;99.90;;;;;;5061829;28;20056;-71
2021/04/10 09:18:05;;;;;;;38.13;21.38;;;9.40;99.90;;;;;;5068482;28;20020;-70
2021/04/10 09:20:46;;;;;;;39.15;22.80;;;9.40;99.90;;;;;;5069506;28;20063;-70
2021/04/10 09:23:31;;;;;;;43.13;22.10;;;9.60;99.90;;;;;;5057974;28;20435;-70
2021/04/10 09:26:12;;;;;;;38.25;22.23;;;9.60;99.90;;;;;;5053773;28;20032;-70
2021/04/10 09:28:55;;;;;;;42.92;21.60;;;9.50;99.90;;;;;;5071002;28;20091;-70
2021/04/10 09:31:41;;;;;;;37.42;21.67;;;9.30;99.90;;;;;;5068395;28;20028;-70
2021/04/10 09:34:46;;;;;;;45.50;22.63;;;9.30;99.90;;;;;;5069478;28;20111;-70
2021/04/10 09:37:31;;;;;;;36.70;22.75;;;9.40;99.90;;;;;;5059462;28;20017;-73
2021/04/10 09:40:00;;;;;;;44.72;22.77;;;9.50;99.90;;;;;;5065929;28;20033;-72
2021/04/10 09:42:34;;;;;;;40.45;22.80;;;9.60;99.90;;;;;;5061472;28;20084;-73
2021/04/10 09:45:23;;;;;;;41.67;22.42;;;9.40;99.90;;;;;;5062491;28;20036;-70
2021/04/10 09:47:59;;;;;;;40.92;21.77;;;9.40;99.90;;;;;;5059942;28;20478;-70
2021/04/10 09:50:32;;;;;;;50.72;25.42;;;9.40;99.90;;;;;;5067612;28;20028;-70
2021/04/10 09:53:05;;;;;;;41.80;23.58;;;9.50;99.90;;;;;;5069317;28;20156;-70
2021/04/10 09:55:36;;;;;;;40.72;24.05;;;9.60;99.90;;;;;;5072803;28;20111;-70
2021/04/10 09:58:06;;;;;;;46.70;23.25;;;9.50;99.90;;;;;;5063798;28;20024;-70
2021/04/10 10:00:33;;;;;;;48.58;24.95;;;9.40;99.90;;;;;;5056706;28;20420;-70
2021/04/10 10:03:00;;;;;;;44.35;25.20;;;9.40;99.90;;;;;;5059259;28;20670;-72
2021/04/10 10:05:49;;;;;;;45.65;24.70;;;9.40;99.90;;;;;;5070268;28;20128;-72
2021/04/10 10:08:16;;;;;;;51.78;26.50;;;9.40;99.90;;;;;;5068384;28;20020;-72
2021/04/10 10:10:44;;;;;;;52.10;27.33;;;9.40;99.90;;;;;;5061650;28;20044;-73
2021/04/10 10:13:15;;;;;;;46.13;27.15;;;9.50;99.90;;;;;;5073660;28;20456;-72
2021/04/10 10:15:42;;;;;;;56.35;28.80;;;9.60;99.90;;;;;;5068868;28;20056;-72
2021/04/10 10:18:14;;;;;;;45.35;24.88;;;9.50;99.90;;;;;;5073295;28;20067;-70
2021/04/10 10:20:52;;;;;;;50.88;27.52;;;9.60;99.90;;;;;;5077125;28;20480;-71
2021/04/10 10:23:17;;;;;;;50.95;24.42;;;9.70;99.90;;;;;;5077284;28;20021;-72
2021/04/10 10:25:43;;;;;;;46.55;26.10;;;9.60;99.90;;;;;;5072153;28;20059;-72
2021/04/10 10:28:16;;;;;;;52.97;28.95;;;9.60;99.90;;;;;;5071422;28;20013;-69
2021/04/10 10:30:42;;;;;;;48.53;28.00;;;9.50;99.90;;;;;;5067404;28;20420;-71
2021/04/10 10:33:08;;;;;;;42.38;25.77;;;9.40;99.90;;;;;;5065858;28;20052;-72
2021/04/10 10:35:34;;;;;;;44.63;28.60;;;9.50;99.90;;;;;;5061409;28;20064;-71
2021/04/10 10:38:07;;;;;;;48.47;28.58;;;9.50;99.90;;;;;;5065005;28;20541;-73
2021/04/10 10:40:34;;;;;;;49.28;28.42;;;9.50;99.90;;;;;;5069165;28;20020;-72
2021/04/10 10:43:05;;;;;;;47.00;28.52;;;9.50;99.90;;;;;;5069404;28;20031;-70
2021/04/10 10:45:40;;;;;;;52.60;29.15;;;9.60;99.90;;;;;;5074173;28;20033;-72
2021/04/10 10:48:30;;;;;;;54.88;32.00;;;9.60;99.90;;;;;;5072956;28;20655;-71
2021/04/10 10:51:02;;;;;;;53.85;29.55;;;9.60;99.90;;;;;;5070739;28;20020;-72
2021/04/10 10:53:38;;;;;;;51.90;30.23;;;9.60;99.90;;;;;;5072666;28;20735;-71
2021/04/10 10:56:07;;;;;;;55.80;31.67;;;9.70;99.90;;;;;;5066427;28;20112;-71
2021/04/10 10:58:36;;;;;;;57.08;30.02;;;9.80;99.90;;;;;;5070397;28;20064;-72
2021/04/10 11:01:10;;;;;;;53.90;30.77;;;9.70;99.90;;;;;;5068051;28;20020;-72
2021/04/10 11:03:37;;;;;;;57.78;33.67;;;9.90;99.90;;;;;;5076329;28;20044;-72
2021/04/10 11:06:03;;;;;;;60.10;35.28;;;9.90;99.90;;;;;;5074030;28;20036;-73
2021/04/10 11:08:29;;;;;;;56.50;32.83;;;9.90;99.90;;;;;;5077073;28;20016;-71
2021/04/10 11:10:56;;;;;;;59.90;35.65;;;9.80;99.90;;;;;;5070872;28;20032;-72
2021/04/10 11:13:24;;;;;;;58.28;32.90;;;9.80;99.90;;;;;;5068282;28;20504;-72
2021/04/10 11:15:50;;;;;;;54.25;32.17;;;9.80;99.90;;;;;;5067195;28;20083;-72
2021/04/10 11:18:26;;;;;;;61.75;35.00;;;9.80;99.90;;;;;;5066736;28;20020;-72
2021/04/10 11:21:09;;;;;;;58.30;32.42;;;9.80;99.90;;;;;;5070741;28;20040;-72
2021/04/10 11:23:54;;;;;;;;;;;9.80;99.90;;;;;;5062899;28;20020;-72
2021/04/10 11:26:42;;;;;;;59.10;33.38;;;9.80;99.90;;;;;;5067951;28;19927;-72
2021/04/10 11:29:21;;;;;;;63.70;35.38;;;9.90;99.90;;;;;;5063768;28;20029;-71
2021/04/10 11:32:16;;;;;;;60.65;34.10;;;9.90;99.90;;;;;;5067834;28;20428;-72
2021/04/10 11:34:56;;;;;;;65.10;38.47;;;10.00;99.90;;;;;;5070288;28;20103;-72
2021/04/10 11:37:28;;;;;;;61.75;35.85;;;10.00;99.90;;;;;;5058193;28;20029;-73
2021/04/10 11:39:59;;;;;;;58.90;34.53;;;10.00;99.90;;;;;;5068124;28;20029;-71
2021/04/10 11:42:39;;;;;;;64.90;37.33;;;10.10;99.90;;;;;;5062061;28;20131;-72
2021/04/10 11:45:12;;;;;;;68.55;38.25;;;9.90;99.90;;;;;;5066006;28;20538;-72
2021/04/10 11:47:39;;;;;;;66.43;36.45;;;10.00;99.90;;;;;;5064523;28;20016;-72
2021/04/10 11:50:17;;;;;;;60.85;35.53;;;10.10;99.90;;;;;;5070080;28;20099;-72
2021/04/10 11:52:44;;;;;;;58.10;35.63;;;10.10;99.90;;;;;;5074484;28;20051;-72
2021/04/10 11:55:18;;;;;;;59.15;34.70;;;10.10;99.90;;;;;;5067430;28;20036;-73
2021/04/10 11:57:57;;;;;;;57.35;33.50;;;10.20;99.90;;;;;;5069860;28;20031;-73
2021/04/10 12:00:27;;;;;;;65.75;36.83;;;10.20;99.90;;;;;;5063291;28;20025;-72
2021/04/10 12:03:03;;;;;;;61.88;37.20;;;10.20;99.90;;;;;;5061306;28;20021;-72
2021/04/10 12:05:35;;;;;;;71.82;40.13;;;10.20;99.90;;;;;;5067311;28;20028;-71
2021/04/10 12:08:18;;;;;;;64.45;37.78;;;10.20;99.90;;;;;;5066482;28;20051;-72
2021/04/10 12:10:50;;;;;;;61.53;35.55;;;10.30;99.90;;;;;;5067590;28;20025;-72
2021/04/10 12:13:16;;;;;;;76.20;40.47;;;10.40;99.90;;;;;;5065361;28;20043;-73
2021/04/10 12:15:47;;;;;;;65.78;36.90;;;10.30;99.90;;;;;;5067666;28;20013;-72
2021/04/10 12:18:13;;;;;;;71.50;42.25;;;10.40;99.90;;;;;;5072557;28;20016;-72
2021/04/10 12:20:39;;;;;;;72.95;40.22;;;10.50;99.90;;;;;;5068265;28;20028;-71
2021/04/10 12:23:05;;;;;;;63.63;39.58;;;10.50;99.90;;;;;;5058451;28;20040;-72
2021/04/10 12:25:31;;;;;;;73.20;41.55;;;10.50;99.90;;;;;;5070077;28;20075;-72
2021/04/10 12:27:57;;;;;;;77.35;41.38;;;10.50;99.90;;;;;;5070681;28;20497;-72
2021/04/10 12:30:23;;;;;;;73.38;42.75;;;10.50;99.90;;;;;;5064045;28;20028;-73
2021/04/10 12:32:48;;;;;;;68.35;39.35;;;10.50;99.90;;;;;;5063203;28;20024;-72
2021/04/10 12:35:14;;;;;;;73.65;41.63;;;10.50;99.90;;;;;;5071773;28;20059;-72
2021/04/10 12:37:40;;;;;;;72.95;41.42;;;10.60;99.90;;;;;;5065461;28;20089;-72
2021/04/10 12:40:07;;;;;;;77.63;41.25;;;10.30;99.90;;;;;;5066963;28;20024;-73
2021/04/10 12:42:33;;;;;;;75.53;41.35;;;10.40;99.90;;;;;;5068948;28;20035;-72
2021/04/10 12:45:00;;;;;;;81.07;45.33;;;10.30;99.90;;;;;;5066825;28;20032;-72